Accueil
METAR-TAF:

METAR-TAF

Aéroports :

Newton City/County Airport

Newton, Kansas, États-Unis

latitude: 38-03N, longitude: 097-17W, altitude: 467 m

Observation

Le bulletin a été fait il y a 1 heure et 5 minutes, à 23:56 UTC
Vent 6 kt de direction variable
Température 26°C
Humidité 54%
Pression 1019 hPa
Visibilité: 16.1 km
Ciel clair

METAR: KEWK 212356Z AUTO VRB06KT 10SM CLR 26/16 A3008 RMK AO2 SLP174 T02610161 10283 20261 55007

Heure: 20:01 (01:01 UTC)


TAF: absent

Observations et prévisions météorologiques de plus de 4000 aéroports (messages METAR et TAF).

Les stations disponibles sont représentées par des disques jaunes et rouges sur la carte.

Passer la souris dessus pour voir le nom de la station.

Cliquer dessus pour voir les observations et prévisions météorologiques.

Pour changer de carte: cliquez sur les boutons verts avec une croix noire pour zoomer, sur le bouton vert avec un tiret pour effectuer un zoom arrière, ou sur les flèches vertes pour les cartes adjacentes.


METAR-TAF: